createdAt,value
2017-10-11T00:01:58.869Z,99.90
2017-10-11T00:04:25.232Z,99.90
2017-10-11T00:06:51.568Z,99.90
2017-10-11T00:09:18.089Z,99.90
2017-10-11T00:11:45.216Z,99.90
2017-10-11T00:14:11.573Z,99.90
2017-10-11T00:16:37.888Z,99.90
2017-10-11T00:19:04.213Z,99.90
2017-10-11T00:21:31.305Z,99.90
2017-10-11T00:23:57.667Z,99.90
2017-10-11T00:26:24.044Z,99.90
2017-10-11T00:28:50.713Z,99.90
2017-10-11T00:31:17.151Z,99.90
2017-10-11T00:33:44.321Z,99.90
2017-10-11T00:36:18.468Z,99.90
2017-10-11T00:38:44.800Z,99.90
2017-10-11T00:41:11.140Z,99.90
2017-10-11T00:43:38.235Z,99.90
2017-10-11T00:46:04.621Z,99.90
2017-10-11T00:48:30.935Z,99.90
2017-10-11T00:50:57.307Z,99.90
2017-10-11T00:53:23.696Z,99.90
2017-10-11T00:55:50.155Z,99.90
2017-10-11T00:58:16.568Z,99.90
2017-10-11T01:00:42.933Z,99.90
2017-10-11T01:03:09.342Z,99.90
2017-10-11T01:05:36.478Z,99.90
2017-10-11T01:08:03.013Z,99.90
2017-10-11T01:10:29.376Z,99.90
2017-10-11T01:12:55.808Z,99.90
2017-10-11T01:15:22.257Z,99.90
2017-10-11T01:17:48.630Z,99.90
2017-10-11T01:20:15.768Z,99.90
2017-10-11T01:22:43.688Z,99.90
2017-10-11T01:25:10.077Z,99.90
2017-10-11T01:27:36.448Z,99.90
2017-10-11T01:30:03.055Z,99.90
2017-10-11T01:32:29.495Z,99.90
2017-10-11T01:34:55.949Z,99.90
2017-10-11T01:37:22.368Z,99.90
2017-10-11T01:39:48.816Z,99.90
2017-10-11T01:42:15.296Z,99.90
2017-10-11T01:44:41.684Z,99.90
2017-10-11T01:47:08.064Z,99.90
2017-10-11T01:49:34.495Z,99.90
2017-10-11T01:52:00.956Z,99.90
2017-10-11T01:54:27.365Z,99.90
2017-10-11T01:56:54.452Z,99.90
2017-10-11T01:59:20.856Z,99.90
2017-10-11T02:01:47.959Z,99.90
2017-10-11T02:04:15.056Z,99.90
2017-10-11T02:06:41.376Z,99.90
2017-10-11T02:09:07.771Z,99.90
2017-10-11T02:11:34.873Z,99.90
2017-10-11T02:14:01.232Z,99.90
2017-10-11T02:16:27.576Z,99.90
2017-10-11T02:18:53.959Z,99.90
2017-10-11T02:21:20.316Z,99.90
2017-10-11T02:23:47.387Z,99.90
2017-10-11T02:26:13.760Z,99.90
2017-10-11T02:28:40.084Z,99.90
2017-10-11T02:31:06.448Z,99.90
2017-10-11T02:33:32.837Z,99.90
2017-10-11T02:36:00.217Z,99.90
2017-10-11T02:38:26.614Z,99.90
2017-10-11T02:40:52.951Z,99.90
2017-10-11T02:43:19.301Z,99.90
2017-10-11T02:45:46.412Z,99.90
2017-10-11T02:48:12.844Z,99.90
2017-10-11T02:50:40.656Z,99.90
2017-10-11T02:53:22.019Z,99.90
2017-10-11T02:55:49.109Z,99.90
2017-10-11T02:58:15.448Z,99.90
2017-10-11T03:00:41.839Z,99.90
2017-10-11T03:03:08.192Z,99.90
2017-10-11T03:05:34.636Z,99.90
2017-10-11T03:08:00.988Z,99.90
2017-10-11T03:10:27.403Z,99.90
2017-10-11T03:12:53.744Z,99.90
2017-10-11T03:15:20.368Z,99.90
2017-10-11T03:17:47.245Z,99.90
2017-10-11T03:20:14.405Z,99.90
2017-10-11T03:22:40.723Z,99.90
2017-10-11T03:25:07.076Z,99.90
2017-10-11T03:27:33.372Z,99.90
2017-10-11T03:29:59.707Z,99.90
2017-10-11T03:32:26.091Z,99.90
2017-10-11T03:34:52.483Z,99.90
2017-10-11T03:37:19.600Z,99.90
2017-10-11T03:39:47.096Z,99.90
2017-10-11T03:42:13.480Z,99.90
2017-10-11T03:44:40.576Z,99.90
2017-10-11T03:47:06.945Z,99.90
2017-10-11T03:49:34.606Z,99.90
2017-10-11T03:52:01.068Z,99.90
2017-10-11T03:54:27.408Z,99.90
2017-10-11T03:56:53.776Z,99.90
2017-10-11T03:59:20.128Z,99.90
2017-10-11T04:01:47.319Z,99.90
2017-10-11T04:04:13.664Z,99.90
2017-10-11T04:06:40.033Z,99.90
2017-10-11T04:09:06.436Z,99.90
2017-10-11T04:11:33.588Z,99.90
2017-10-11T04:13:59.976Z,99.90
2017-10-11T04:16:26.396Z,99.90
2017-10-11T04:18:52.792Z,99.90
2017-10-11T04:21:19.168Z,99.90
2017-10-11T04:23:45.815Z,99.90
2017-10-11T04:26:12.232Z,99.90
2017-10-11T04:28:38.628Z,99.90
2017-10-11T04:31:05.029Z,99.90
2017-10-11T04:33:31.532Z,99.90
2017-10-11T04:35:57.944Z,99.90
2017-10-11T04:38:24.357Z,99.90
2017-10-11T04:40:51.505Z,99.90
2017-10-11T04:43:18.894Z,99.90
2017-10-11T04:45:45.532Z,99.90
2017-10-11T04:48:11.912Z,99.90
2017-10-11T04:50:39.036Z,99.90
2017-10-11T04:53:05.644Z,99.90
2017-10-11T04:55:32.010Z,99.90
2017-10-11T04:57:58.368Z,99.90
2017-10-11T05:00:24.732Z,99.90
2017-10-11T05:02:51.045Z,99.90
2017-10-11T05:05:17.380Z,99.90
2017-10-11T05:07:43.745Z,99.90
2017-10-11T05:10:10.093Z,99.90
2017-10-11T05:12:36.442Z,99.90
2017-10-11T05:15:02.788Z,99.90
2017-10-11T05:17:29.113Z,99.90
2017-10-11T05:19:55.506Z,99.90
2017-10-11T05:22:21.864Z,99.90
2017-10-11T05:24:48.228Z,99.90
2017-10-11T05:27:14.557Z,99.90
2017-10-11T05:29:40.916Z,99.90
2017-10-11T05:32:08.360Z,99.90
2017-10-11T05:34:34.756Z,99.90
2017-10-11T05:37:01.195Z,99.90
2017-10-11T05:39:27.555Z,99.90
2017-10-11T05:41:54.773Z,99.90
2017-10-11T05:44:21.144Z,99.90
2017-10-11T05:46:48.398Z,99.90
2017-10-11T05:49:14.781Z,99.90
2017-10-11T05:51:41.220Z,99.90
2017-10-11T05:54:07.874Z,99.90
2017-10-11T05:56:34.919Z,99.90
2017-10-11T05:59:01.380Z,99.90
2017-10-11T06:01:29.357Z,99.90
2017-10-11T06:03:55.792Z,99.90
2017-10-11T06:06:22.362Z,99.90
2017-10-11T06:08:48.808Z,99.90
2017-10-11T06:11:15.212Z,99.90
2017-10-11T06:13:42.411Z,99.50
2017-10-11T06:16:09.068Z,99.50
2017-10-11T06:18:35.538Z,99.40
2017-10-11T06:21:01.957Z,99.30
2017-10-11T06:23:28.408Z,99.10
2017-10-11T06:25:54.820Z,98.90
2017-10-11T06:28:21.305Z,98.50
2017-10-11T06:30:48.471Z,98.30
2017-10-11T06:33:15.217Z,98.30
2017-10-11T06:35:42.411Z,98.20
2017-10-11T06:38:08.817Z,98.20
2017-10-11T06:40:35.552Z,98.20
2017-10-11T06:43:02.744Z,98.00
2017-10-11T06:45:29.163Z,98.00
2017-10-11T06:47:55.512Z,98.00
2017-10-11T06:50:22.001Z,97.90
2017-10-11T06:52:48.370Z,97.70
2017-10-11T06:55:15.532Z,97.90
2017-10-11T06:57:42.616Z,97.60
2017-10-11T07:00:09.012Z,97.60
2017-10-11T07:02:35.413Z,97.30
2017-10-11T07:05:03.321Z,96.20
2017-10-11T07:07:29.740Z,96.30
2017-10-11T07:09:56.115Z,96.00
2017-10-11T07:12:23.287Z,95.30
2017-10-11T07:14:50.420Z,95.10
2017-10-11T07:17:16.896Z,95.10
2017-10-11T07:19:44.076Z,94.30
2017-10-11T07:22:11.386Z,94.10
2017-10-11T07:24:37.801Z,93.50
2017-10-11T07:27:05.216Z,93.90
2017-10-11T07:29:31.570Z,93.40
2017-10-11T07:31:57.996Z,93.60
2017-10-11T07:34:24.400Z,93.40
2017-10-11T07:36:51.534Z,92.90
2017-10-11T07:39:17.915Z,92.80
2017-10-11T07:41:44.370Z,93.30
2017-10-11T07:44:11.573Z,92.70
2017-10-11T07:46:37.970Z,92.70
2017-10-11T07:49:04.400Z,92.10
2017-10-11T07:51:31.545Z,92.70
2017-10-11T07:53:57.961Z,92.70
2017-10-11T07:56:24.480Z,92.00
2017-10-11T07:58:50.907Z,92.00
2017-10-11T08:01:18.066Z,92.00
2017-10-11T08:03:44.550Z,91.70
2017-10-11T08:06:11.893Z,92.10
2017-10-11T08:08:38.260Z,92.10
2017-10-11T08:11:04.624Z,91.90
2017-10-11T08:13:33.037Z,91.40
2017-10-11T08:15:59.463Z,91.00
2017-10-11T08:18:26.533Z,89.50
2017-10-11T08:20:52.885Z,89.50
2017-10-11T08:23:19.972Z,90.00
2017-10-11T08:25:46.363Z,90.00
2017-10-11T08:28:12.720Z,89.70
2017-10-11T08:30:39.796Z,87.00
2017-10-11T08:33:06.209Z,87.00
2017-10-11T08:35:32.672Z,87.30
2017-10-11T08:37:59.066Z,86.60
2017-10-11T08:40:25.376Z,87.50
2017-10-11T08:42:52.528Z,86.60
2017-10-11T08:45:19.589Z,85.30
2017-10-11T08:47:46.696Z,85.20
2017-10-11T08:50:13.166Z,85.10
2017-10-11T08:52:39.644Z,85.70
2017-10-11T08:55:05.998Z,86.60
2017-10-11T08:57:32.410Z,87.10
2017-10-11T08:59:58.753Z,86.70
2017-10-11T09:02:25.147Z,87.60
2017-10-11T09:04:51.640Z,88.60
2017-10-11T09:07:25.131Z,89.00
2017-10-11T09:09:51.533Z,90.40
2017-10-11T09:12:18.036Z,89.60
2017-10-11T09:14:44.696Z,90.40
2017-10-11T09:17:11.807Z,90.50
2017-10-11T09:19:38.919Z,91.00
2017-10-11T09:22:05.264Z,91.00
2017-10-11T09:24:31.636Z,90.80
2017-10-11T09:26:58.020Z,91.00
2017-10-11T09:29:24.369Z,91.00
2017-10-11T09:31:53.552Z,90.80
2017-10-11T09:34:20.664Z,91.20
2017-10-11T09:36:47.036Z,91.20
2017-10-11T09:39:13.377Z,91.10
2017-10-11T09:41:39.758Z,91.30
2017-10-11T09:44:06.122Z,91.20
2017-10-11T09:46:33.216Z,91.40
2017-10-11T09:48:59.544Z,91.40
2017-10-11T09:51:25.963Z,92.00
2017-10-11T09:53:52.293Z,92.00
2017-10-11T09:56:18.717Z,91.80
2017-10-11T09:58:45.556Z,92.30
2017-10-11T10:01:12.800Z,91.80
2017-10-11T10:03:39.233Z,91.90
2017-10-11T10:06:05.724Z,92.40
2017-10-11T10:08:32.217Z,92.00
2017-10-11T10:10:59.364Z,92.20
2017-10-11T10:13:25.787Z,92.20
2017-10-11T10:15:52.223Z,92.50
2017-10-11T10:18:18.649Z,92.90
2017-10-11T10:20:45.249Z,92.70
2017-10-11T10:23:11.694Z,92.40
2017-10-11T10:25:38.098Z,92.30
2017-10-11T10:28:04.596Z,92.30
2017-10-11T10:30:30.966Z,92.60
2017-10-11T10:32:57.403Z,92.50
2017-10-11T10:35:23.791Z,91.70
2017-10-11T10:37:50.179Z,91.70
2017-10-11T10:40:16.627Z,92.00
2017-10-11T10:42:43.000Z,91.70
2017-10-11T10:45:09.429Z,92.10
2017-10-11T10:47:35.829Z,92.20
2017-10-11T10:50:06.069Z,92.20
2017-10-11T10:52:32.461Z,92.20
2017-10-11T10:54:58.853Z,92.00
2017-10-11T10:57:25.224Z,92.10
2017-10-11T10:59:51.665Z,92.60
2017-10-11T11:02:18.804Z,92.30
2017-10-11T11:04:45.484Z,92.20
2017-10-11T11:07:11.877Z,92.20
2017-10-11T11:09:38.332Z,92.00
2017-10-11T11:12:04.736Z,92.40
2017-10-11T11:14:31.192Z,92.20
2017-10-11T11:16:57.606Z,92.00
2017-10-11T11:19:24.001Z,92.20
2017-10-11T11:21:50.421Z,92.60
2017-10-11T11:24:16.830Z,91.90
2017-10-11T11:26:43.268Z,92.00
2017-10-11T11:29:09.683Z,91.40
2017-10-11T11:31:36.832Z,91.70
2017-10-11T11:34:03.226Z,91.40
2017-10-11T11:36:29.814Z,91.50
2017-10-11T11:38:56.228Z,91.70
2017-10-11T11:41:22.677Z,91.80
2017-10-11T11:43:49.827Z,91.50
2017-10-11T11:46:16.992Z,92.00
2017-10-11T11:48:44.283Z,92.00
2017-10-11T11:51:10.833Z,92.40
2017-10-11T11:53:37.224Z,92.00
2017-10-11T11:56:03.613Z,92.40
2017-10-11T11:58:30.110Z,92.80
2017-10-11T12:00:56.481Z,93.10
2017-10-11T12:03:22.857Z,92.80
2017-10-11T12:05:49.225Z,93.00
2017-10-11T12:08:15.808Z,93.00
2017-10-11T12:10:42.152Z,93.20
2017-10-11T12:13:08.520Z,93.10
2017-10-11T12:15:34.880Z,93.20
2017-10-11T12:18:01.261Z,93.70
2017-10-11T12:20:27.636Z,93.80
2017-10-11T12:22:54.012Z,93.40
2017-10-11T12:25:20.408Z,93.60
2017-10-11T12:27:47.539Z,92.80
2017-10-11T12:30:13.929Z,92.80
2017-10-11T12:32:41.084Z,93.20
2017-10-11T12:35:07.580Z,93.20
2017-10-11T12:37:33.995Z,92.70
2017-10-11T12:40:01.021Z,92.90
2017-10-11T12:42:27.375Z,92.60
2017-10-11T12:44:53.764Z,92.20
2017-10-11T12:47:20.863Z,92.00
2017-10-11T12:49:54.217Z,92.00
2017-10-11T12:52:20.620Z,91.80
2017-10-11T12:54:46.984Z,92.10
2017-10-11T12:57:13.383Z,92.30
2017-10-11T12:59:39.864Z,92.30
2017-10-11T13:02:06.283Z,92.20
2017-10-11T13:04:32.730Z,92.30
2017-10-11T13:06:59.189Z,92.60
2017-10-11T13:09:25.640Z,92.80
2017-10-11T13:11:52.144Z,92.90
2017-10-11T13:14:18.536Z,92.80
2017-10-11T13:16:45.688Z,92.30
2017-10-11T13:19:12.086Z,92.30
2017-10-11T13:21:38.496Z,92.40
2017-10-11T13:24:04.920Z,92.30
2017-10-11T13:26:31.378Z,92.00
2017-10-11T13:28:57.765Z,91.70
2017-10-11T13:31:24.875Z,91.50
2017-10-11T13:33:51.296Z,91.50
2017-10-11T13:36:17.710Z,91.10
2017-10-11T13:38:44.992Z,91.20
2017-10-11T13:41:11.398Z,91.20
2017-10-11T13:43:37.849Z,91.20
2017-10-11T13:46:04.266Z,91.30
2017-10-11T13:48:31.357Z,91.30
2017-10-11T13:50:57.761Z,91.20
2017-10-11T13:53:24.207Z,91.00
2017-10-11T13:55:50.677Z,91.40
2017-10-11T13:58:17.792Z,90.60
2017-10-11T14:00:44.260Z,90.60
2017-10-11T14:03:11.368Z,90.30
2017-10-11T14:05:37.813Z,90.30
2017-10-11T14:08:04.909Z,90.10
2017-10-11T14:10:31.243Z,90.20
2017-10-11T14:12:57.701Z,90.00
2017-10-11T14:15:24.055Z,90.60
2017-10-11T14:17:50.441Z,90.70
2017-10-11T14:20:17.588Z,90.40
2017-10-11T14:22:44.290Z,90.40
2017-10-11T14:25:10.712Z,91.00
2017-10-11T14:27:37.121Z,90.60
2017-10-11T14:30:03.521Z,89.80
2017-10-11T14:32:29.908Z,90.10
2017-10-11T14:34:56.326Z,90.10
2017-10-11T14:37:23.428Z,89.00
2017-10-11T14:39:49.841Z,89.00
2017-10-11T14:42:16.224Z,90.00
2017-10-11T14:44:42.656Z,89.40
2017-10-11T14:47:09.027Z,89.80
2017-10-11T14:49:35.389Z,89.80
2017-10-11T14:52:01.796Z,88.80
2017-10-11T14:54:28.532Z,88.50
2017-10-11T14:56:55.745Z,89.40
2017-10-11T14:59:22.245Z,89.30
2017-10-11T15:01:49.393Z,90.10
2017-10-11T15:04:15.833Z,90.10
2017-10-11T15:06:42.355Z,90.20
2017-10-11T15:09:09.533Z,90.70
2017-10-11T15:11:36.719Z,90.10
2017-10-11T15:14:03.877Z,90.20
2017-10-11T15:16:31.029Z,90.30
2017-10-11T15:18:58.209Z,90.30
2017-10-11T15:21:24.640Z,90.30
2017-10-11T15:23:51.001Z,90.80
2017-10-11T15:26:18.292Z,91.00
2017-10-11T15:28:44.958Z,91.20
2017-10-11T15:31:11.362Z,90.90
2017-10-11T15:33:38.573Z,92.10
2017-10-11T15:36:05.060Z,91.70
2017-10-11T15:38:31.485Z,92.00
2017-10-11T15:40:58.640Z,92.30
2017-10-11T15:43:25.803Z,92.20
2017-10-11T15:45:52.999Z,92.40
2017-10-11T15:48:20.198Z,92.60
2017-10-11T15:50:47.318Z,92.70
2017-10-11T15:53:14.844Z,92.70
2017-10-11T15:55:42.053Z,92.70
2017-10-11T15:58:08.453Z,92.70
2017-10-11T16:00:35.596Z,93.20
2017-10-11T16:03:02.009Z,93.20
2017-10-11T16:05:28.436Z,93.40
2017-10-11T16:07:55.612Z,93.70
2017-10-11T16:10:22.076Z,93.70
2017-10-11T16:12:48.456Z,93.90
2017-10-11T16:15:14.841Z,94.00
2017-10-11T16:17:41.250Z,94.40
2017-10-11T16:20:07.677Z,94.70
2017-10-11T16:22:34.273Z,94.90
2017-10-11T16:25:00.692Z,95.10
2017-10-11T16:27:27.120Z,95.30
2017-10-11T16:29:53.514Z,95.50
2017-10-11T16:32:19.904Z,95.10
2017-10-11T16:34:46.322Z,95.70
2017-10-11T16:37:12.678Z,96.00
2017-10-11T16:39:39.072Z,96.40
2017-10-11T16:42:05.481Z,96.60
2017-10-11T16:44:31.923Z,96.80
2017-10-11T16:46:58.294Z,96.90
2017-10-11T16:49:24.688Z,97.00
2017-10-11T16:51:52.344Z,97.20
2017-10-11T16:54:18.817Z,97.40
2017-10-11T16:56:45.286Z,97.40
2017-10-11T16:59:11.724Z,97.50
2017-10-11T17:01:38.828Z,97.70
2017-10-11T17:04:05.312Z,97.90
2017-10-11T17:06:31.707Z,97.80
2017-10-11T17:08:58.928Z,97.60
2017-10-11T17:11:26.154Z,97.70
2017-10-11T17:13:53.346Z,97.70
2017-10-11T17:16:19.785Z,97.50
2017-10-11T17:18:47.924Z,97.70
2017-10-11T17:21:14.402Z,97.70
2017-10-11T17:23:40.820Z,97.50
2017-10-11T17:26:07.904Z,97.30
2017-10-11T17:28:34.311Z,97.30
2017-10-11T17:31:00.705Z,97.20
2017-10-11T17:33:27.120Z,96.70
2017-10-11T17:35:54.200Z,96.30
2017-10-11T17:38:20.567Z,96.10
2017-10-11T17:40:46.957Z,96.00
2017-10-11T17:43:13.324Z,96.00
2017-10-11T17:45:39.708Z,95.70
2017-10-11T17:48:06.138Z,95.70
2017-10-11T17:50:32.638Z,95.50
2017-10-11T17:52:59.024Z,95.00
2017-10-11T17:55:25.373Z,95.00
2017-10-11T17:57:51.716Z,94.70
2017-10-11T18:00:18.108Z,94.70
2017-10-11T18:02:45.188Z,94.80
2017-10-11T18:05:12.237Z,94.90
2017-10-11T18:07:39.305Z,95.10
2017-10-11T18:10:06.377Z,94.90
2017-10-11T18:12:32.809Z,94.90
2017-10-11T18:14:59.124Z,95.10
2017-10-11T18:17:26.212Z,95.80
2017-10-11T18:19:52.539Z,95.40
2017-10-11T18:22:19.600Z,96.00
2017-10-11T18:24:45.952Z,96.00
2017-10-11T18:27:12.288Z,96.40
2017-10-11T18:29:39.357Z,96.90
2017-10-11T18:32:05.720Z,97.00
2017-10-11T18:34:33.580Z,97.10
2017-10-11T18:36:59.915Z,97.10
2017-10-11T18:39:26.285Z,96.80
2017-10-11T18:41:52.631Z,96.50
2017-10-11T18:44:18.980Z,96.20
2017-10-11T18:46:45.319Z,95.90
2017-10-11T18:49:11.692Z,95.80
2017-10-11T18:51:38.032Z,95.60
2017-10-11T18:54:04.347Z,95.80
2017-10-11T18:56:30.712Z,95.80
2017-10-11T18:58:57.028Z,95.70
2017-10-11T19:01:23.380Z,95.70
2017-10-11T19:03:49.700Z,95.70
2017-10-11T19:06:16.064Z,95.60
2017-10-11T19:08:42.404Z,95.40
2017-10-11T19:11:08.753Z,95.10
2017-10-11T19:13:35.112Z,95.00
2017-10-11T19:16:01.505Z,95.00
2017-10-11T19:18:28.581Z,94.90
2017-10-11T19:20:54.920Z,94.90
2017-10-11T19:23:21.293Z,94.80
2017-10-11T19:25:47.624Z,94.70
2017-10-11T19:28:13.997Z,94.70
2017-10-11T19:30:40.322Z,95.00
2017-10-11T19:33:06.684Z,94.90
2017-10-11T19:35:33.316Z,94.90
2017-10-11T19:37:59.700Z,95.00
2017-10-11T19:40:26.046Z,95.00
2017-10-11T19:42:53.404Z,95.20
2017-10-11T19:45:20.515Z,95.10
2017-10-11T19:47:48.448Z,95.10
2017-10-11T19:50:14.773Z,95.10
2017-10-11T19:52:41.093Z,94.80
2017-10-11T19:55:07.453Z,95.00
2017-10-11T19:57:33.809Z,94.70
2017-10-11T20:00:01.036Z,94.80
2017-10-11T20:02:27.383Z,95.00
2017-10-11T20:04:53.732Z,94.80
2017-10-11T20:07:20.096Z,94.60
2017-10-11T20:09:46.435Z,94.50
2017-10-11T20:12:13.552Z,94.30
2017-10-11T20:14:39.917Z,94.20
2017-10-11T20:17:06.269Z,94.40
2017-10-11T20:19:32.708Z,94.10
2017-10-11T20:21:59.040Z,94.00
2017-10-11T20:24:25.372Z,93.50
2017-10-11T20:26:51.729Z,93.00
2017-10-11T20:29:18.144Z,92.50
2017-10-11T20:31:44.472Z,92.50
2017-10-11T20:34:10.808Z,92.40
2017-10-11T20:36:37.171Z,92.40
2017-10-11T20:39:03.569Z,92.20
2017-10-11T20:41:29.948Z,92.10
2017-10-11T20:43:56.308Z,92.10
2017-10-11T20:46:22.647Z,91.80
2017-10-11T20:48:48.972Z,92.00
2017-10-11T20:51:15.356Z,92.10
2017-10-11T20:53:41.717Z,91.80
2017-10-11T20:56:08.087Z,91.60
2017-10-11T20:58:34.479Z,91.60
2017-10-11T21:01:00.858Z,91.70
2017-10-11T21:03:27.995Z,91.60
2017-10-11T21:05:54.376Z,91.60
2017-10-11T21:08:21.467Z,91.50
2017-10-11T21:10:47.852Z,91.50
2017-10-11T21:13:14.199Z,91.40
2017-10-11T21:15:41.329Z,91.60
2017-10-11T21:18:09.419Z,91.60
2017-10-11T21:20:36.588Z,91.70
2017-10-11T21:23:03.170Z,91.70
2017-10-11T21:25:30.264Z,91.70
2017-10-11T21:27:56.680Z,91.70
2017-10-11T21:30:23.082Z,91.70
2017-10-11T21:32:49.448Z,91.60
2017-10-11T21:35:16.615Z,91.80
2017-10-11T21:37:42.973Z,91.70
2017-10-11T21:40:10.052Z,91.90
2017-10-11T21:42:36.432Z,91.90
2017-10-11T21:45:02.809Z,92.00
2017-10-11T21:47:29.892Z,92.10
2017-10-11T21:49:56.336Z,92.00
2017-10-11T21:52:22.727Z,92.60
2017-10-11T21:54:49.093Z,92.70
2017-10-11T21:57:16.181Z,93.10
2017-10-11T21:59:42.560Z,93.10
2017-10-11T22:02:08.901Z,93.00
2017-10-11T22:04:35.265Z,93.00
2017-10-11T22:07:01.583Z,93.20
2017-10-11T22:09:27.944Z,93.60
2017-10-11T22:11:54.276Z,93.80
2017-10-11T22:14:20.576Z,94.20
2017-10-11T22:16:47.649Z,94.40
2017-10-11T22:19:14.710Z,94.30
2017-10-11T22:21:41.036Z,94.30
2017-10-11T22:24:07.372Z,94.30
2017-10-11T22:26:34.464Z,94.50
2017-10-11T22:29:00.774Z,94.50
2017-10-11T22:31:27.117Z,94.80
2017-10-11T22:33:53.425Z,94.80
2017-10-11T22:36:19.754Z,94.90
2017-10-11T22:38:46.052Z,94.60
2017-10-11T22:41:12.347Z,94.50
2017-10-11T22:43:38.673Z,94.60
2017-10-11T22:46:04.996Z,94.60
2017-10-11T22:48:31.316Z,94.50
2017-10-11T22:50:58.376Z,94.40
2017-10-11T22:53:25.435Z,94.40
2017-10-11T22:55:52.515Z,94.30
2017-10-11T22:58:18.892Z,94.30
2017-10-11T23:00:45.255Z,94.30
2017-10-11T23:03:11.623Z,94.30
2017-10-11T23:05:38.718Z,94.60
2017-10-11T23:08:05.091Z,94.30
2017-10-11T23:10:31.410Z,94.30
2017-10-11T23:12:57.744Z,94.10
2017-10-11T23:15:24.097Z,94.10
2017-10-11T23:17:50.444Z,94.30
2017-10-11T23:20:16.804Z,94.30
2017-10-11T23:22:43.183Z,94.10
2017-10-11T23:25:10.401Z,93.90
2017-10-11T23:27:36.740Z,94.00
2017-10-11T23:30:03.166Z,93.80
2017-10-11T23:32:29.500Z,93.70
2017-10-11T23:34:55.839Z,93.50
2017-10-11T23:37:22.191Z,93.40
2017-10-11T23:39:48.535Z,93.40
2017-10-11T23:42:14.912Z,93.50
2017-10-11T23:44:41.284Z,93.40
2017-10-11T23:47:08.392Z,93.20
2017-10-11T23:49:34.732Z,93.20
2017-10-11T23:52:01.080Z,93.20
2017-10-11T23:54:27.456Z,93.30
2017-10-11T23:56:53.792Z,93.30
2017-10-11T23:59:21.588Z,93.60
